Siem Pilot — LCPF — position and weather

sailwx.info

Track history (hours):
 
Tides and Currents Weather Stations Pressure Air Temp Water Temp Dewpoint Dewpoint Depression Visibility Wind Speed Wind Dir Waves Ship Positions

Siem Pilot

Last reported at 2016-Dec-06 18:31 UTC. Time now 2016-Dec-06 19:52 UTC.
Position N 38°01' E 012°31'.

Length 88 m; draft 6.1 m.

Type: Law enforcement. MMSI: 257458000.

Date/timePositionNaut miles runAvg speedWind from/ knotsBaromVisibWave heightAir tempDewpointWater temp
2016-Dec-06 18:31N 38°01' E 012°31'0 0.0
2016-Dec-06 17:28N 38°01' E 012°31'0 0.0
2016-Dec-06 16:28N 38°01' E 012°31'0 0.0
2016-Dec-06 15:31N 38°01' E 012°31'0 0.0
2016-Dec-06 14:19N 38°01' E 012°31'2 1.2
2016-Dec-06 12:33N 38°00' E 012°28'4 4.4
2016-Dec-06 11:33N 38°02' E 012°23'6 6.1
2016-Dec-06 10:33N 37°59' E 012°16'  
2016-Dec-02 12:20N 35°49' E 014°02'7 9.4
2016-Dec-02 11:33N 35°47' E 014°11'9 9.4
2016-Dec-02 10:33N 35°42' E 014°21'8 8.0
2016-Dec-02 09:33N 35°38' E 014°29'9 2.6
2016-Dec-02 06:15N 35°44' E 014°36'4 5.0
2016-Dec-02 05:24N 35°49' E 014°37'7 7.5
2016-Dec-02 04:32N 35°54' E 014°33'  
2016-Nov-29 15:05N 35°54' E 014°31'4 7.8
2016-Nov-29 14:33N 35°57' E 014°35'8 8.0
2016-Nov-29 13:33N 36°01' E 014°44'91 4.5
2016-Nov-28 17:26N 37°30' E 015°06'0 0.0
2016-Nov-28 07:12N 37°30' E 015°06'20 4.9
2016-Nov-28 03:14N 37°44' E 015°23'6 3.6
2016-Nov-28 01:33N 37°49' E 015°27'4 4.3
2016-Nov-28 00:33N 37°50' E 015°32'4 3.8
2016-Nov-27 23:33N 37°50' E 015°37'3 3.5
2016-Nov-27 22:33N 37°51' E 015°41'4 3.8
2016-Nov-27 21:33N 37°51' E 015°46'4 3.7
2016-Nov-27 20:33N 37°52' E 015°51'53 5.2
2016-Nov-27 10:27N 38°07' E 016°55'  
Track history (hours):
 
Tides and Currents Weather Stations Pressure Air Temp Water Temp Dewpoint Dewpoint Depression Visibility Wind Speed Wind Dir Waves Ship Positions

Siem Pilot

Last reported at 2016-Dec-06 18:31 UTC. Time now 2016-Dec-06 19:52 UTC.
Position N 38°01' E 012°31'.

Length 88 m; draft 6.1 m.

Type: Law enforcement. MMSI: 257458000.

Date/timePositionNaut miles runAvg speedWind from/ knotsBaromVisibWave heightAir tempDewpointWater temp
2016-Dec-06 18:31N 38°01' E 012°31'0 0.0
2016-Dec-06 17:28N 38°01' E 012°31'0 0.0
2016-Dec-06 16:28N 38°01' E 012°31'0 0.0
2016-Dec-06 15:31N 38°01' E 012°31'0 0.0
2016-Dec-06 14:19N 38°01' E 012°31'2 1.2
2016-Dec-06 12:33N 38°00' E 012°28'4 4.4
2016-Dec-06 11:33N 38°02' E 012°23'6 6.1
2016-Dec-06 10:33N 37°59' E 012°16'  
2016-Dec-02 12:20N 35°49' E 014°02'7 9.4
2016-Dec-02 11:33N 35°47' E 014°11'9 9.4
2016-Dec-02 10:33N 35°42' E 014°21'8 8.0
2016-Dec-02 09:33N 35°38' E 014°29'9 2.6
2016-Dec-02 06:15N 35°44' E 014°36'4 5.0
2016-Dec-02 05:24N 35°49' E 014°37'7 7.5
2016-Dec-02 04:32N 35°54' E 014°33'  
2016-Nov-29 15:05N 35°54' E 014°31'4 7.8
2016-Nov-29 14:33N 35°57' E 014°35'8 8.0
2016-Nov-29 13:33N 36°01' E 014°44'91 4.5
2016-Nov-28 17:26N 37°30' E 015°06'0 0.0
2016-Nov-28 07:12N 37°30' E 015°06'20 4.9
2016-Nov-28 03:14N 37°44' E 015°23'6 3.6
2016-Nov-28 01:33N 37°49' E 015°27'4 4.3
2016-Nov-28 00:33N 37°50' E 015°32'4 3.8
2016-Nov-27 23:33N 37°50' E 015°37'3 3.5
2016-Nov-27 22:33N 37°51' E 015°41'4 3.8
2016-Nov-27 21:33N 37°51' E 015°46'4 3.7
2016-Nov-27 20:33N 37°52' E 015°51'53 5.2
2016-Nov-27 10:27N 38°07' E 016°55'  

Dump ship's entire track history